sensor_id;sensor_type;location;lat;lon;timestamp;temperature;humidity
25280;DHT22;13225;47.804;12.116;2022-09-13T00:01:45;12.00;99.90
25280;DHT22;13225;47.804;12.116;2022-09-13T00:04:12;12.20;99.90
25280;DHT22;13225;47.804;12.116;2022-09-13T00:06:38;12.30;99.90
25280;DHT22;13225;47.804;12.116;2022-09-13T00:09:04;12.40;99.90
25280;DHT22;13225;47.804;12.116;2022-09-13T00:11:30;12.40;99.90
25280;DHT22;13225;47.804;12.116;2022-09-13T00:13:58;12.50;99.90
25280;DHT22;13225;47.804;12.116;2022-09-13T00:16:27;12.50;99.90
25280;DHT22;13225;47.804;12.116;2022-09-13T00:18:56;12.70;99.90
25280;DHT22;13225;47.804;12.116;2022-09-13T00:21:23;12.70;99.90
25280;DHT22;13225;47.804;12.116;2022-09-13T00:23:50;12.80;99.90
25280;DHT22;13225;47.804;12.116;2022-09-13T00:26:24;12.80;99.90
25280;DHT22;13225;47.804;12.116;2022-09-13T00:28:54;12.90;99.90
25280;DHT22;13225;47.804;12.116;2022-09-13T00:31:21;12.90;99.90
25280;DHT22;13225;47.804;12.116;2022-09-13T00:33:53;12.90;99.90
25280;DHT22;13225;47.804;12.116;2022-09-13T00:36:21;12.80;99.90
25280;DHT22;13225;47.804;12.116;2022-09-13T00:38:49;12.70;99.90
25280;DHT22;13225;47.804;12.116;2022-09-13T00:41:17;12.70;99.90
25280;DHT22;13225;47.804;12.116;2022-09-13T00:43:48;12.70;99.90
25280;DHT22;13225;47.804;12.116;2022-09-13T00:48:52;12.90;99.90
25280;DHT22;13225;47.804;12.116;2022-09-13T00:51:22;12.90;99.90
25280;DHT22;13225;47.804;12.116;2022-09-13T00:53:51;12.90;99.90
25280;DHT22;13225;47.804;12.116;2022-09-13T00:56:27;13.00;99.90
25280;DHT22;13225;47.804;12.116;2022-09-13T00:58:59;13.10;99.90
25280;DHT22;13225;47.804;12.116;2022-09-13T01:01:32;13.10;99.90
25280;DHT22;13225;47.804;12.116;2022-09-13T01:04:00;13.10;99.90
25280;DHT22;13225;47.804;12.116;2022-09-13T01:06:30;13.10;99.90
25280;DHT22;13225;47.804;12.116;2022-09-13T01:08:58;13.10;99.90
25280;DHT22;13225;47.804;12.116;2022-09-13T01:14:09;13.20;99.90
25280;DHT22;13225;47.804;12.116;2022-09-13T01:16:37;13.20;99.90
25280;DHT22;13225;47.804;12.116;2022-09-13T01:19:03;13.20;99.90
25280;DHT22;13225;47.804;12.116;2022-09-13T01:22:05;13.20;99.90
25280;DHT22;13225;47.804;12.116;2022-09-13T01:30:22;13.30;99.90
25280;DHT22;13225;47.804;12.116;2022-09-13T01:46:28;13.30;99.90
25280;DHT22;13225;47.804;12.116;2022-09-13T01:51:37;13.30;99.90
25280;DHT22;13225;47.804;12.116;2022-09-13T01:57:17;13.30;99.90
25280;DHT22;13225;47.804;12.116;2022-09-13T02:00:00;13.30;99.90
25280;DHT22;13225;47.804;12.116;2022-09-13T02:05:18;13.30;99.90
25280;DHT22;13225;47.804;12.116;2022-09-13T02:07:58;13.30;99.90
25280;DHT22;13225;47.804;12.116;2022-09-13T02:10:34;13.30;99.90
25280;DHT22;13225;47.804;12.116;2022-09-13T02:13:05;13.30;99.90
25280;DHT22;13225;47.804;12.116;2022-09-13T02:15:46;13.20;99.90
25280;DHT22;13225;47.804;12.116;2022-09-13T02:18:38;13.30;99.90
25280;DHT22;13225;47.804;12.116;2022-09-13T02:21:13;13.20;99.90
25280;DHT22;13225;47.804;12.116;2022-09-13T02:23:49;13.20;99.90
25280;DHT22;13225;47.804;12.116;2022-09-13T02:26:17;13.10;99.90
25280;DHT22;13225;47.804;12.116;2022-09-13T02:28:48;13.10;99.90
25280;DHT22;13225;47.804;12.116;2022-09-13T02:31:21;13.10;99.90
25280;DHT22;13225;47.804;12.116;2022-09-13T02:33:56;13.10;99.90
25280;DHT22;13225;47.804;12.116;2022-09-13T02:36:30;13.10;99.90
25280;DHT22;13225;47.804;12.116;2022-09-13T02:39:12;13.20;99.90
25280;DHT22;13225;47.804;12.116;2022-09-13T02:41:55;13.10;99.90
25280;DHT22;13225;47.804;12.116;2022-09-13T02:52:56;12.90;99.90
25280;DHT22;13225;47.804;12.116;2022-09-13T02:56:30;12.90;99.90
25280;DHT22;13225;47.804;12.116;2022-09-13T03:01:18;12.90;99.90
25280;DHT22;13225;47.804;12.116;2022-09-13T03:03:48;12.90;99.90
25280;DHT22;13225;47.804;12.116;2022-09-13T03:06:44;12.90;99.90
25280;DHT22;13225;47.804;12.116;2022-09-13T03:09:13;12.90;99.90
25280;DHT22;13225;47.804;12.116;2022-09-13T03:14:49;12.90;99.90
25280;DHT22;13225;47.804;12.116;2022-09-13T03:20:24;13.00;99.90
25280;DHT22;13225;47.804;12.116;2022-09-13T03:31:35;12.90;99.90
25280;DHT22;13225;47.804;12.116;2022-09-13T03:34:12;12.90;99.90
25280;DHT22;13225;47.804;12.116;2022-09-13T03:37:13;12.90;99.90
25280;DHT22;13225;47.804;12.116;2022-09-13T03:40:00;12.90;99.90
25280;DHT22;13225;47.804;12.116;2022-09-13T03:45:24;12.80;99.90
25280;DHT22;13225;47.804;12.116;2022-09-13T03:47:54;12.80;99.90
25280;DHT22;13225;47.804;12.116;2022-09-13T03:50:22;12.70;99.90
25280;DHT22;13225;47.804;12.116;2022-09-13T03:52:58;12.70;99.90
25280;DHT22;13225;47.804;12.116;2022-09-13T03:55:25;12.70;99.90
25280;DHT22;13225;47.804;12.116;2022-09-13T03:57:54;12.60;99.90
25280;DHT22;13225;47.804;12.116;2022-09-13T04:00:22;12.60;99.90
25280;DHT22;13225;47.804;12.116;2022-09-13T04:02:48;12.60;99.90
25280;DHT22;13225;47.804;12.116;2022-09-13T04:05:16;12.70;99.90
25280;DHT22;13225;47.804;12.116;2022-09-13T04:07:42;12.80;99.90
25280;DHT22;13225;47.804;12.116;2022-09-13T04:10:08;12.80;99.90
25280;DHT22;13225;47.804;12.116;2022-09-13T04:12:37;12.80;99.90
25280;DHT22;13225;47.804;12.116;2022-09-13T04:15:03;12.70;99.90
25280;DHT22;13225;47.804;12.116;2022-09-13T04:17:31;12.80;99.90
25280;DHT22;13225;47.804;12.116;2022-09-13T04:19:57;12.80;99.90
25280;DHT22;13225;47.804;12.116;2022-09-13T04:22:23;12.80;99.90
25280;DHT22;13225;47.804;12.116;2022-09-13T04:24:50;12.80;99.90
25280;DHT22;13225;47.804;12.116;2022-09-13T04:27:17;12.80;99.90
25280;DHT22;13225;47.804;12.116;2022-09-13T04:29:47;12.80;99.90
25280;DHT22;13225;47.804;12.116;2022-09-13T04:32:21;12.70;99.90
25280;DHT22;13225;47.804;12.116;2022-09-13T04:34:46;12.70;99.90
25280;DHT22;13225;47.804;12.116;2022-09-13T04:37:12;12.70;99.90
25280;DHT22;13225;47.804;12.116;2022-09-13T04:39:40;12.70;99.90
25280;DHT22;13225;47.804;12.116;2022-09-13T04:42:08;12.60;99.90
25280;DHT22;13225;47.804;12.116;2022-09-13T04:44:35;12.60;99.90
25280;DHT22;13225;47.804;12.116;2022-09-13T04:47:01;12.60;99.90
25280;DHT22;13225;47.804;12.116;2022-09-13T04:49:27;12.70;99.90
25280;DHT22;13225;47.804;12.116;2022-09-13T04:51:52;12.70;99.90
25280;DHT22;13225;47.804;12.116;2022-09-13T04:54:18;12.80;99.90
25280;DHT22;13225;47.804;12.116;2022-09-13T04:56:44;12.70;99.90
25280;DHT22;13225;47.804;12.116;2022-09-13T04:59:10;12.70;99.90
25280;DHT22;13225;47.804;12.116;2022-09-13T05:01:37;12.70;99.90
25280;DHT22;13225;47.804;12.116;2022-09-13T05:04:04;12.70;99.90
25280;DHT22;13225;47.804;12.116;2022-09-13T05:06:32;12.80;99.90
25280;DHT22;13225;47.804;12.116;2022-09-13T05:09:01;12.90;99.90
25280;DHT22;13225;47.804;12.116;2022-09-13T05:11:27;12.80;99.90
25280;DHT22;13225;47.804;12.116;2022-09-13T05:13:56;12.80;99.90
25280;DHT22;13225;47.804;12.116;2022-09-13T05:16:32;12.90;99.90
25280;DHT22;13225;47.804;12.116;2022-09-13T05:18:59;12.90;99.90
25280;DHT22;13225;47.804;12.116;2022-09-13T05:21:30;12.90;99.90
25280;DHT22;13225;47.804;12.116;2022-09-13T05:24:00;13.00;99.90
25280;DHT22;13225;47.804;12.116;2022-09-13T05:26:30;13.00;99.90
25280;DHT22;13225;47.804;12.116;2022-09-13T05:28:57;13.10;99.90
25280;DHT22;13225;47.804;12.116;2022-09-13T05:31:32;13.10;99.90
25280;DHT22;13225;47.804;12.116;2022-09-13T05:34:05;13.10;99.90
25280;DHT22;13225;47.804;12.116;2022-09-13T05:36:32;13.10;99.90
25280;DHT22;13225;47.804;12.116;2022-09-13T05:39:02;13.20;99.90
25280;DHT22;13225;47.804;12.116;2022-09-13T05:41:31;13.20;99.90
25280;DHT22;13225;47.804;12.116;2022-09-13T05:43:57;13.30;99.90
25280;DHT22;13225;47.804;12.116;2022-09-13T05:46:27;13.30;99.90
25280;DHT22;13225;47.804;12.116;2022-09-13T05:48:59;13.40;99.90
25280;DHT22;13225;47.804;12.116;2022-09-13T05:51:25;13.40;99.90
25280;DHT22;13225;47.804;12.116;2022-09-13T05:53:52;13.50;99.90
25280;DHT22;13225;47.804;12.116;2022-09-13T05:56:21;13.50;99.90
25280;DHT22;13225;47.804;12.116;2022-09-13T05:58:52;13.60;99.90
25280;DHT22;13225;47.804;12.116;2022-09-13T06:01:20;13.70;99.90
25280;DHT22;13225;47.804;12.116;2022-09-13T06:03:56;13.80;99.90
25280;DHT22;13225;47.804;12.116;2022-09-13T06:06:25;13.80;99.90
25280;DHT22;13225;47.804;12.116;2022-09-13T06:08:52;13.80;99.90
25280;DHT22;13225;47.804;12.116;2022-09-13T06:11:18;13.90;99.90
25280;DHT22;13225;47.804;12.116;2022-09-13T06:13:44;14.00;99.90
25280;DHT22;13225;47.804;12.116;2022-09-13T06:16:12;14.00;99.90
25280;DHT22;13225;47.804;12.116;2022-09-13T06:18:40;14.00;99.90
25280;DHT22;13225;47.804;12.116;2022-09-13T06:21:11;14.10;99.90
25280;DHT22;13225;47.804;12.116;2022-09-13T06:23:44;14.00;99.90
25280;DHT22;13225;47.804;12.116;2022-09-13T06:26:11;14.10;99.90
25280;DHT22;13225;47.804;12.116;2022-09-13T06:28:40;14.10;99.90
25280;DHT22;13225;47.804;12.116;2022-09-13T06:31:09;14.20;99.90
25280;DHT22;13225;47.804;12.116;2022-09-13T06:33:38;14.20;99.90
25280;DHT22;13225;47.804;12.116;2022-09-13T06:36:11;14.30;99.90
25280;DHT22;13225;47.804;12.116;2022-09-13T06:38:39;14.50;99.90
25280;DHT22;13225;47.804;12.116;2022-09-13T06:41:10;14.60;99.90
25280;DHT22;13225;47.804;12.116;2022-09-13T06:43:39;14.60;99.90
25280;DHT22;13225;47.804;12.116;2022-09-13T06:46:06;14.70;99.90
25280;DHT22;13225;47.804;12.116;2022-09-13T06:48:37;14.80;99.90
25280;DHT22;13225;47.804;12.116;2022-09-13T06:51:05;14.90;99.90
25280;DHT22;13225;47.804;12.116;2022-09-13T06:53:35;14.90;99.90
25280;DHT22;13225;47.804;12.116;2022-09-13T06:58:28;15.10;99.90
25280;DHT22;13225;47.804;12.116;2022-09-13T07:01:03;15.20;99.90
25280;DHT22;13225;47.804;12.116;2022-09-13T07:03:30;15.30;99.90
25280;DHT22;13225;47.804;12.116;2022-09-13T07:05:55;15.40;99.90
25280;DHT22;13225;47.804;12.116;2022-09-13T07:08:23;15.40;99.90
25280;DHT22;13225;47.804;12.116;2022-09-13T07:10:49;15.40;99.90
25280;DHT22;13225;47.804;12.116;2022-09-13T07:13:15;15.40;99.90
25280;DHT22;13225;47.804;12.116;2022-09-13T07:15:43;15.40;99.90
25280;DHT22;13225;47.804;12.116;2022-09-13T07:18:11;15.50;99.90
25280;DHT22;13225;47.804;12.116;2022-09-13T07:20:37;15.50;99.90
25280;DHT22;13225;47.804;12.116;2022-09-13T07:23:04;15.60;99.90
25280;DHT22;13225;47.804;12.116;2022-09-13T07:25:30;15.70;99.90
25280;DHT22;13225;47.804;12.116;2022-09-13T07:27:58;15.70;99.90
25280;DHT22;13225;47.804;12.116;2022-09-13T07:30:24;15.90;99.90
25280;DHT22;13225;47.804;12.116;2022-09-13T07:32:51;15.90;99.90
25280;DHT22;13225;47.804;12.116;2022-09-13T07:35:16;16.00;99.90
25280;DHT22;13225;47.804;12.116;2022-09-13T07:37:42;16.20;99.90
25280;DHT22;13225;47.804;12.116;2022-09-13T07:40:12;16.20;99.90
25280;DHT22;13225;47.804;12.116;2022-09-13T07:42:38;16.30;99.90
25280;DHT22;13225;47.804;12.116;2022-09-13T07:45:07;16.40;99.90
25280;DHT22;13225;47.804;12.116;2022-09-13T07:47:35;16.60;99.90
25280;DHT22;13225;47.804;12.116;2022-09-13T07:50:01;16.60;99.90
25280;DHT22;13225;47.804;12.116;2022-09-13T07:52:28;16.80;99.90
25280;DHT22;13225;47.804;12.116;2022-09-13T07:54:53;16.90;99.90
25280;DHT22;13225;47.804;12.116;2022-09-13T07:57:19;17.00;99.90
25280;DHT22;13225;47.804;12.116;2022-09-13T07:59:48;17.20;99.90
25280;DHT22;13225;47.804;12.116;2022-09-13T08:02:14;17.30;99.90
25280;DHT22;13225;47.804;12.116;2022-09-13T08:04:42;17.30;99.90
25280;DHT22;13225;47.804;12.116;2022-09-13T08:07:07;17.40;99.90
25280;DHT22;13225;47.804;12.116;2022-09-13T08:09:33;17.40;99.90
25280;DHT22;13225;47.804;12.116;2022-09-13T08:11:58;17.60;99.90
25280;DHT22;13225;47.804;12.116;2022-09-13T08:14:26;17.70;99.90
25280;DHT22;13225;47.804;12.116;2022-09-13T08:16:55;17.80;99.90
25280;DHT22;13225;47.804;12.116;2022-09-13T08:19:21;17.90;99.90
25280;DHT22;13225;47.804;12.116;2022-09-13T08:21:49;18.00;99.90
25280;DHT22;13225;47.804;12.116;2022-09-13T08:24:18;18.00;99.90
25280;DHT22;13225;47.804;12.116;2022-09-13T08:26:48;18.20;99.90
25280;DHT22;13225;47.804;12.116;2022-09-13T08:29:16;18.20;99.90
25280;DHT22;13225;47.804;12.116;2022-09-13T08:31:45;18.30;99.90
25280;DHT22;13225;47.804;12.116;2022-09-13T08:34:14;18.40;99.90
25280;DHT22;13225;47.804;12.116;2022-09-13T08:36:42;18.50;99.90
25280;DHT22;13225;47.804;12.116;2022-09-13T08:39:09;18.80;99.90
25280;DHT22;13225;47.804;12.116;2022-09-13T08:44:32;19.20;99.90
25280;DHT22;13225;47.804;12.116;2022-09-13T08:49:51;19.40;99.90
25280;DHT22;13225;47.804;12.116;2022-09-13T08:52:32;19.60;99.90
25280;DHT22;13225;47.804;12.116;2022-09-13T08:55:02;19.60;99.90
25280;DHT22;13225;47.804;12.116;2022-09-13T08:57:47;19.60;99.90
25280;DHT22;13225;47.804;12.116;2022-09-13T09:00:34;19.90;99.90
25280;DHT22;13225;47.804;12.116;2022-09-13T09:03:17;20.20;99.90
25280;DHT22;13225;47.804;12.116;2022-09-13T09:05:56;20.40;99.90
25280;DHT22;13225;47.804;12.116;2022-09-13T09:08:42;20.50;99.90
25280;DHT22;13225;47.804;12.116;2022-09-13T09:11:47;20.50;99.90
25280;DHT22;13225;47.804;12.116;2022-09-13T09:14:38;20.20;99.90
25280;DHT22;13225;47.804;12.116;2022-09-13T09:17:11;20.10;99.90
25280;DHT22;13225;47.804;12.116;2022-09-13T09:19:42;20.00;99.90
25280;DHT22;13225;47.804;12.116;2022-09-13T09:22:16;20.00;99.90
25280;DHT22;13225;47.804;12.116;2022-09-13T09:24:46;20.10;99.90
25280;DHT22;13225;47.804;12.116;2022-09-13T09:27:15;20.20;99.90
25280;DHT22;13225;47.804;12.116;2022-09-13T09:29:42;20.50;99.90
25280;DHT22;13225;47.804;12.116;2022-09-13T09:35:10;21.00;99.90
25280;DHT22;13225;47.804;12.116;2022-09-13T09:37:40;21.40;99.90
25280;DHT22;13225;47.804;12.116;2022-09-13T09:40:16;21.60;99.90
25280;DHT22;13225;47.804;12.116;2022-09-13T09:42:47;21.70;99.90
25280;DHT22;13225;47.804;12.116;2022-09-13T09:47:54;21.80;99.90
25280;DHT22;13225;47.804;12.116;2022-09-13T09:50:28;21.70;99.90
25280;DHT22;13225;47.804;12.116;2022-09-13T09:55:50;21.80;99.90
25280;DHT22;13225;47.804;12.116;2022-09-13T09:58:44;21.80;99.90
25280;DHT22;13225;47.804;12.116;2022-09-13T10:01:34;21.90;99.90
25280;DHT22;13225;47.804;12.116;2022-09-13T10:06:28;21.40;99.90
25280;DHT22;13225;47.804;12.116;2022-09-13T10:11:42;21.80;99.90
25280;DHT22;13225;47.804;12.116;2022-09-13T10:17:27;22.00;99.90
25280;DHT22;13225;47.804;12.116;2022-09-13T10:22:44;22.10;99.90
25280;DHT22;13225;47.804;12.116;2022-09-13T10:25:24;22.30;99.90
25280;DHT22;13225;47.804;12.116;2022-09-13T10:27:53;22.30;99.90
25280;DHT22;13225;47.804;12.116;2022-09-13T10:33:40;22.40;99.90
25280;DHT22;13225;47.804;12.116;2022-09-13T10:36:22;22.60;99.90
25280;DHT22;13225;47.804;12.116;2022-09-13T10:39:17;22.80;99.90
25280;DHT22;13225;47.804;12.116;2022-09-13T10:42:02;22.90;99.90
25280;DHT22;13225;47.804;12.116;2022-09-13T10:45:02;23.00;99.90
25280;DHT22;13225;47.804;12.116;2022-09-13T10:47:53;23.30;99.90
25280;DHT22;13225;47.804;12.116;2022-09-13T10:50:27;23.40;99.90
25280;DHT22;13225;47.804;12.116;2022-09-13T10:52:55;23.50;99.90
25280;DHT22;13225;47.804;12.116;2022-09-13T10:55:33;23.70;99.90
25280;DHT22;13225;47.804;12.116;2022-09-13T11:39:51;25.70;99.90
25280;DHT22;13225;47.804;12.116;2022-09-13T11:45:37;26.00;99.90
25280;DHT22;13225;47.804;12.116;2022-09-13T11:48:18;26.40;99.90
25280;DHT22;13225;47.804;12.116;2022-09-13T11:54:17;26.50;99.90
25280;DHT22;13225;47.804;12.116;2022-09-13T11:56:52;26.50;99.90
25280;DHT22;13225;47.804;12.116;2022-09-13T12:02:41;27.50;99.30
25280;DHT22;13225;47.804;12.116;2022-09-13T12:05:25;27.90;98.40
25280;DHT22;13225;47.804;12.116;2022-09-13T12:08:01;29.40;94.50
25280;DHT22;13225;47.804;12.116;2022-09-13T12:10:49;29.70;95.20
25280;DHT22;13225;47.804;12.116;2022-09-13T12:13:23;30.30;93.10
25280;DHT22;13225;47.804;12.116;2022-09-13T12:16:01;29.30;94.20
25280;DHT22;13225;47.804;12.116;2022-09-13T12:18:45;28.80;96.00
25280;DHT22;13225;47.804;12.116;2022-09-13T12:21:22;28.90;94.40
25280;DHT22;13225;47.804;12.116;2022-09-13T12:24:10;28.40;94.20
25280;DHT22;13225;47.804;12.116;2022-09-13T12:27:03;28.20;95.40
25280;DHT22;13225;47.804;12.116;2022-09-13T12:29:35;28.10;96.20
25280;DHT22;13225;47.804;12.116;2022-09-13T12:32:04;28.60;98.30
25280;DHT22;13225;47.804;12.116;2022-09-13T12:45:54;28.50;95.70
25280;DHT22;13225;47.804;12.116;2022-09-13T13:05:48;28.30;93.50
25280;DHT22;13225;47.804;12.116;2022-09-13T13:11:07;28.30;93.60
25280;DHT22;13225;47.804;12.116;2022-09-13T13:13:42;28.50;93.10
25280;DHT22;13225;47.804;12.116;2022-09-13T13:16:24;29.20;93.20
25280;DHT22;13225;47.804;12.116;2022-09-13T13:18:55;29.60;92.30
25280;DHT22;13225;47.804;12.116;2022-09-13T13:26:47;30.60;91.50
25280;DHT22;13225;47.804;12.116;2022-09-13T13:29:17;31.00;92.20
25280;DHT22;13225;47.804;12.116;2022-09-13T13:34:33;31.20;90.80
25280;DHT22;13225;47.804;12.116;2022-09-13T13:37:03;31.10;91.00
25280;DHT22;13225;47.804;12.116;2022-09-13T13:42:09;31.00;88.60
25280;DHT22;13225;47.804;12.116;2022-09-13T13:57:35;31.50;90.30
25280;DHT22;13225;47.804;12.116;2022-09-13T14:08:06;30.40;90.00
25280;DHT22;13225;47.804;12.116;2022-09-13T14:10:39;29.80;89.70
25280;DHT22;13225;47.804;12.116;2022-09-13T14:13:17;29.50;90.40
25280;DHT22;13225;47.804;12.116;2022-09-13T14:15:49;29.40;90.30
25280;DHT22;13225;47.804;12.116;2022-09-13T14:21:02;29.90;87.90
25280;DHT22;13225;47.804;12.116;2022-09-13T14:23:28;30.00;88.40
25280;DHT22;13225;47.804;12.116;2022-09-13T14:25:58;29.90;90.30
25280;DHT22;13225;47.804;12.116;2022-09-13T14:28:25;30.10;90.10
25280;DHT22;13225;47.804;12.116;2022-09-13T14:30:54;30.20;90.00
25280;DHT22;13225;47.804;12.116;2022-09-13T14:33:24;30.40;89.70
25280;DHT22;13225;47.804;12.116;2022-09-13T14:36:04;30.70;87.90
25280;DHT22;13225;47.804;12.116;2022-09-13T14:38:33;31.00;87.70
25280;DHT22;13225;47.804;12.116;2022-09-13T14:41:20;30.80;87.70
25280;DHT22;13225;47.804;12.116;2022-09-13T14:43:47;30.20;87.70
25280;DHT22;13225;47.804;12.116;2022-09-13T14:46:26;29.60;89.70
25280;DHT22;13225;47.804;12.116;2022-09-13T14:48:56;29.10;90.50
25280;DHT22;13225;47.804;12.116;2022-09-13T14:51:27;28.50;92.10
25280;DHT22;13225;47.804;12.116;2022-09-13T14:54:14;28.20;93.00
25280;DHT22;13225;47.804;12.116;2022-09-13T14:56:45;27.80;93.70
25280;DHT22;13225;47.804;12.116;2022-09-13T14:59:20;27.60;94.30
25280;DHT22;13225;47.804;12.116;2022-09-13T15:01:49;27.50;93.80
25280;DHT22;13225;47.804;12.116;2022-09-13T15:04:16;27.40;94.40
25280;DHT22;13225;47.804;12.116;2022-09-13T15:06:43;27.40;94.90
25280;DHT22;13225;47.804;12.116;2022-09-13T15:11:36;27.10;95.70
25280;DHT22;13225;47.804;12.116;2022-09-13T15:14:24;27.10;96.30
25280;DHT22;13225;47.804;12.116;2022-09-13T15:16:59;27.00;96.50
25280;DHT22;13225;47.804;12.116;2022-09-13T15:22:21;27.20;97.00
25280;DHT22;13225;47.804;12.116;2022-09-13T15:24:50;27.40;96.50
25280;DHT22;13225;47.804;12.116;2022-09-13T15:30:29;27.20;96.00
25280;DHT22;13225;47.804;12.116;2022-09-13T15:35:40;26.90;96.50
25280;DHT22;13225;47.804;12.116;2022-09-13T15:38:26;26.80;97.00
25280;DHT22;13225;47.804;12.116;2022-09-13T15:41:11;26.90;97.40
25280;DHT22;13225;47.804;12.116;2022-09-13T15:43:37;26.90;98.20
25280;DHT22;13225;47.804;12.116;2022-09-13T15:46:04;27.00;98.20
25280;DHT22;13225;47.804;12.116;2022-09-13T15:48:31;27.00;99.00
25280;DHT22;13225;47.804;12.116;2022-09-13T15:51:09;26.90;98.50
25280;DHT22;13225;47.804;12.116;2022-09-13T15:53:40;26.80;99.40
25280;DHT22;13225;47.804;12.116;2022-09-13T15:56:08;26.50;99.30
25280;DHT22;13225;47.804;12.116;2022-09-13T15:58:36;26.30;99.90
25280;DHT22;13225;47.804;12.116;2022-09-13T16:01:03;26.00;99.90
25280;DHT22;13225;47.804;12.116;2022-09-13T16:03:28;25.90;99.90
25280;DHT22;13225;47.804;12.116;2022-09-13T16:05:54;25.80;99.90
25280;DHT22;13225;47.804;12.116;2022-09-13T16:08:20;25.60;99.90
25280;DHT22;13225;47.804;12.116;2022-09-13T16:10:46;25.50;99.90
25280;DHT22;13225;47.804;12.116;2022-09-13T16:13:11;25.40;99.90
25280;DHT22;13225;47.804;12.116;2022-09-13T16:15:37;25.30;99.90
25280;DHT22;13225;47.804;12.116;2022-09-13T16:18:03;25.20;99.90
25280;DHT22;13225;47.804;12.116;2022-09-13T16:20:28;25.00;99.90
25280;DHT22;13225;47.804;12.116;2022-09-13T16:22:54;24.80;99.90
25280;DHT22;13225;47.804;12.116;2022-09-13T16:25:20;24.60;99.90
25280;DHT22;13225;47.804;12.116;2022-09-13T16:27:45;24.30;99.90
25280;DHT22;13225;47.804;12.116;2022-09-13T16:30:19;24.20;99.90
25280;DHT22;13225;47.804;12.116;2022-09-13T16:32:47;24.10;99.90
25280;DHT22;13225;47.804;12.116;2022-09-13T16:35:13;23.90;99.90
25280;DHT22;13225;47.804;12.116;2022-09-13T16:37:41;23.90;99.90
25280;DHT22;13225;47.804;12.116;2022-09-13T16:40:09;23.70;99.90
25280;DHT22;13225;47.804;12.116;2022-09-13T16:42:35;23.60;99.90
25280;DHT22;13225;47.804;12.116;2022-09-13T16:45:01;23.50;99.90
25280;DHT22;13225;47.804;12.116;2022-09-13T16:47:27;23.30;99.90
25280;DHT22;13225;47.804;12.116;2022-09-13T16:49:52;23.30;99.90
25280;DHT22;13225;47.804;12.116;2022-09-13T16:52:18;23.20;99.90
25280;DHT22;13225;47.804;12.116;2022-09-13T16:54:44;23.10;99.90
25280;DHT22;13225;47.804;12.116;2022-09-13T16:57:14;22.90;99.90
25280;DHT22;13225;47.804;12.116;2022-09-13T16:59:40;22.80;99.90
25280;DHT22;13225;47.804;12.116;2022-09-13T17:02:07;22.80;99.90
25280;DHT22;13225;47.804;12.116;2022-09-13T17:04:34;22.70;99.90
25280;DHT22;13225;47.804;12.116;2022-09-13T17:06:59;22.70;99.90
25280;DHT22;13225;47.804;12.116;2022-09-13T17:09:27;22.50;99.90
25280;DHT22;13225;47.804;12.116;2022-09-13T17:11:53;22.30;99.90
25280;DHT22;13225;47.804;12.116;2022-09-13T17:14:18;22.30;99.90
25280;DHT22;13225;47.804;12.116;2022-09-13T17:16:48;22.20;99.90
25280;DHT22;13225;47.804;12.116;2022-09-13T17:19:18;22.10;99.90
25280;DHT22;13225;47.804;12.116;2022-09-13T17:21:45;22.00;99.90
25280;DHT22;13225;47.804;12.116;2022-09-13T17:24:11;21.90;99.90
25280;DHT22;13225;47.804;12.116;2022-09-13T17:26:37;21.70;99.90
25280;DHT22;13225;47.804;12.116;2022-09-13T17:29:03;21.50;99.90
25280;DHT22;13225;47.804;12.116;2022-09-13T17:31:28;21.30;99.90
25280;DHT22;13225;47.804;12.116;2022-09-13T17:33:54;21.20;99.90
25280;DHT22;13225;47.804;12.116;2022-09-13T17:36:20;21.00;99.90
25280;DHT22;13225;47.804;12.116;2022-09-13T17:38:46;20.90;99.90
25280;DHT22;13225;47.804;12.116;2022-09-13T17:41:14;20.90;99.90
25280;DHT22;13225;47.804;12.116;2022-09-13T17:43:40;20.70;99.90
25280;DHT22;13225;47.804;12.116;2022-09-13T17:46:13;20.70;99.90
25280;DHT22;13225;47.804;12.116;2022-09-13T17:48:40;20.60;99.90
25280;DHT22;13225;47.804;12.116;2022-09-13T17:51:09;20.60;99.90
25280;DHT22;13225;47.804;12.116;2022-09-13T17:53:40;20.60;99.90
25280;DHT22;13225;47.804;12.116;2022-09-13T17:56:07;20.50;99.90
25280;DHT22;13225;47.804;12.116;2022-09-13T17:58:34;20.60;99.90
25280;DHT22;13225;47.804;12.116;2022-09-13T18:01:05;20.50;99.90
25280;DHT22;13225;47.804;12.116;2022-09-13T18:03:31;20.50;99.90
25280;DHT22;13225;47.804;12.116;2022-09-13T18:05:57;20.40;99.90
25280;DHT22;13225;47.804;12.116;2022-09-13T18:08:28;20.40;99.90
25280;DHT22;13225;47.804;12.116;2022-09-13T18:10:54;20.40;99.90
25280;DHT22;13225;47.804;12.116;2022-09-13T18:13:20;20.40;99.90
25280;DHT22;13225;47.804;12.116;2022-09-13T18:16:06;20.40;99.90
25280;DHT22;13225;47.804;12.116;2022-09-13T18:18:36;20.50;99.90
25280;DHT22;13225;47.804;12.116;2022-09-13T18:21:03;20.40;99.90
25280;DHT22;13225;47.804;12.116;2022-09-13T18:23:28;20.40;99.90
25280;DHT22;13225;47.804;12.116;2022-09-13T18:25:59;20.30;99.90
25280;DHT22;13225;47.804;12.116;2022-09-13T18:28:26;20.20;99.90
25280;DHT22;13225;47.804;12.116;2022-09-13T18:30:53;20.00;99.90
25280;DHT22;13225;47.804;12.116;2022-09-13T18:33:19;19.80;99.90
25280;DHT22;13225;47.804;12.116;2022-09-13T18:38:26;19.70;99.90
25280;DHT22;13225;47.804;12.116;2022-09-13T18:41:07;19.60;99.90
25280;DHT22;13225;47.804;12.116;2022-09-13T18:43:37;19.40;99.90
25280;DHT22;13225;47.804;12.116;2022-09-13T18:46:08;19.30;99.90
25280;DHT22;13225;47.804;12.116;2022-09-13T18:48:36;19.20;99.90
25280;DHT22;13225;47.804;12.116;2022-09-13T18:51:03;19.10;99.90
25280;DHT22;13225;47.804;12.116;2022-09-13T18:53:29;19.00;99.90
25280;DHT22;13225;47.804;12.116;2022-09-13T18:55:59;19.00;99.90
25280;DHT22;13225;47.804;12.116;2022-09-13T18:58:25;19.00;99.90
25280;DHT22;13225;47.804;12.116;2022-09-13T19:01:18;18.90;99.90
25280;DHT22;13225;47.804;12.116;2022-09-13T19:03:55;18.80;99.90
25280;DHT22;13225;47.804;12.116;2022-09-13T19:06:23;18.70;99.90
25280;DHT22;13225;47.804;12.116;2022-09-13T19:08:50;18.70;99.90
25280;DHT22;13225;47.804;12.116;2022-09-13T19:11:17;18.70;99.90
25280;DHT22;13225;47.804;12.116;2022-09-13T19:13:43;18.60;99.90
25280;DHT22;13225;47.804;12.116;2022-09-13T19:16:11;18.60;99.90
25280;DHT22;13225;47.804;12.116;2022-09-13T19:18:40;18.50;99.90
25280;DHT22;13225;47.804;12.116;2022-09-13T19:21:10;18.50;99.90
25280;DHT22;13225;47.804;12.116;2022-09-13T19:23:38;18.40;99.90